DTTF/GAF METAR and TAF weather

Enter ICAO airport designator
Station Type Date Time Source
DTTF METAR 2019/08/22 03:00 UTC NOAA

DTTF 220300Z 04009KT CAVOK 24/19 Q1015 NOSIG


Station Type Date Time Source
DTTF Decoded METAR 2019/08/22 03:00 UTC NOAA

Station name not available
Aug 21, 2019 - 11:00 PM EDT / 2019.08.22 0300 UTC
Wind: from the NE (040 degrees) at 10 MPH (9 KT):0
Visibility: greater than 7 mile(s):0
Temperature: 75 F (24 C)
Dew Point: 66 F (19 C)
Relative Humidity: 73%
Pressure (altimeter): 29.97 in. Hg (1015 hPa)
ob: DTTF 220300Z 04009KT CAVOK 24/19 Q1015 NOSIG
cycle: 3

Station Type Date Time Source
DTTF TAF 2018/07/22 13:33 UTC NOAA

TAF DTTF 221200Z 2213/2322 22010KT 7000 NSC PROB30
TEMPO 2216/2220 4000 -TSRA FEW026CB

Example: see airport list